Saint Louis, Missouri
Traffic Map
Current Weather Conditions
Saint Louis, Missouri
Overcast
Overcast
34°
Feels Like: 24°
Wind Chill: 24° Ceiling: 3900
Heat Index: 34° Visibility: 10mi
Dew Point: 22° Wind: 16mph
Humidity: 61% Direction: 310° (NW)
Pressure: 30.31in Gusts: 0mph
Raw Report DataKCPS 121753Z 31014KT 10SM SCT022 OVC039 01/M06 A3031 RMK AO2 SLP267 T00111056 10022 21033 51009
Traffic Incident Summary
Active as of:
Severity:
Category:
InformationThere was an issue retrieving the traffic information for this location. Please try a different location or try again shortly.
Advertisements
Track Severe Weather on mobile